Sites:

Météo St-Alphonse, Qc
(Site 2 via Meteotemplate)

Détecteur de foudre Station IQUEBECS58
(Route Marcellin)

CoCoRaHS Canada
Station CAN-QC-5

Météo Basses-Laurentides, Qc

Météo Breakeyville, Qc

Météo Chaudière-Appalaches, Qc

Météo Chicoutimi, Qc

Météo Fredericton, N-B

Météo Haut-Richelieu, Qc

Météo Kamouraska, Qc

Météo Lanaudière, Qc

Météo Matane, Qc

Météo Montréal, Qc

Météo Mt St-Hilaire, Qc

Météo Outaouais, Qc

Météo Rimouski, Qc

Météo Ste-Famille, Qc

Météo St-Hyacinthe, Qc

Météo St-Laurent, Mtl

Météo St-Léonard, Mtl

Météo St-Hubert, Mtl

Météo St-Pascal, Qc

Météo Vaudreuil, Mtl

Météo Alerte Québec

Météo Centre

État des routes
Québec 511

Québec en Alerte

Orage Québec

Québec Vortex
chasseurs de tempêtes

Hydro Météo (info-rivière)

Avalanche Québec

Agrométéo Québec

Bulletin des agriculteurs

Réseau Météo-Québec

Réseau Météo des Provinces Atlantiques

Séismes Canada
l'Est du Canada

Fire Smoke Canada

Canwarn Québec

Climat Québec

Environnement Canada

MétéoMédia

METEOTEMPLATE

Leuven Template

Municipalité St-Alphonse

LET St-Alphonse

Domaine des Chutes du Ruisseau Creux

RÉGîM



Weather Underground Historique Text

Journalier - Résumé pour mai 23, 2018 Les unités:  Métriques    Impériales   Les deux
« Précédent Jour
Suivant Jour »
Journalier - Par semaine Mensuel Annuel Personnalisé
  Actuel: élevé: Bas: Moyenne:
Température: -16.3 °C -17.8 °C -16.6 °C -15.3 °C
Point de rosée: -17.1 °C -17.8 °C -17.2 °C -15.9 °C
Humidité relative: 91 % Humidity % 90 % 92 %
Vitesse du vent: 0 km/h 0 km/h 0 km/h 6 km/h
Rafale de vent: 0 km/h 0 km/h - -
Vent:Calm - - ESE
Pression: 34327.3 hPa 0 hPa 34107.2 hPa -
Précipitations: 226.06 mm      
Historical Graphs
 
 
Les données tabulaires pour mai 23, 2018
Heure Température Point de rosée Pression Vent Vitesse du vent Rafale de vent Humidité relative Les précipitations (horaires) solaire
-17.8 °C -17.8 °C 0 hPa Calm     Humidity % 0 mm SolarRadiationWatts/m^2 W/m2
00:00 -11.8 °C -12.4 °C 34107.2 hPa Calm     94 % 25.4 mm 0.0 W/m2
00:05 -11.8 °C -12.3 °C 34107.2 hPa Calm     94 % 25.4 mm 0.0 W/m2
00:10 -11.8 °C -12.3 °C 34120.7 hPa Calm     95 % 20.32 mm 0.0 W/m2
00:20 -11.8 °C -12.3 °C 34107.2 hPa Calm     95 % 12.7 mm 0.0 W/m2
00:30 -11.9 °C -12.3 °C 34120.7 hPa Calm   15.6 km/h 95 % 7.62 mm 0.0 W/m2
00:40 -12 °C -12.4 °C 34120.7 hPa WSW 2.6 km/h 15.6 km/h 95 % 7.62 mm 0.0 W/m2
00:50 -12.1 °C -12.6 °C 34120.7 hPa Calm     95 % 0 mm 0.0 W/m2
01:00 -12.2 °C -12.7 °C 34130.9 hPa Calm   2.6 km/h 95 % 0 mm 0.0 W/m2
01:05 -12.3 °C -12.8 °C 34130.9 hPa Calm     94 % 7.62 mm 0.0 W/m2
01:10 -12.3 °C -12.8 °C 34130.9 hPa Calm     94 % 7.62 mm 0.0 W/m2
01:20 -12.5 °C -13 °C 34130.9 hPa NNE 5.1 km/h 20.8 km/h 94 % 12.7 mm 0.0 W/m2
01:30 -12.7 °C -13.2 °C 34130.9 hPa NNE 12.9 km/h 33.6 km/h 94 % 12.7 mm 0.0 W/m2
01:40 -12.9 °C -13.6 °C 34130.9 hPa NNE 12.9 km/h 25.9 km/h 93 % 20.32 mm 0.0 W/m2
01:50 -13.2 °C -13.8 °C 34144.4 hPa NE 7.7 km/h 41.4 km/h 93 % 25.4 mm 0.0 W/m2
02:00 -13.7 °C -14.4 °C 34144.4 hPa NNE 20.8 km/h 41.4 km/h 91 % 25.4 mm 0.0 W/m2
02:05 -13.8 °C -14.4 °C 34130.9 hPa NNE 12.9 km/h 33.6 km/h 92 % 25.4 mm 0.0 W/m2
02:10 -13.8 °C -14.6 °C 34144.4 hPa NNE 7.7 km/h 33.6 km/h 92 % 33.02 mm 0.0 W/m2
02:20 -14 °C -14.7 °C 34144.4 hPa NNE 2.6 km/h 25.9 km/h 92 % 25.4 mm 0.0 W/m2
02:30 -14.1 °C -14.6 °C 34144.4 hPa North 7.7 km/h 25.9 km/h 93 % 20.32 mm 0.0 W/m2
02:40 -14.1 °C -14.7 °C 34144.4 hPa NE 7.7 km/h 36.2 km/h 93 % 20.32 mm 0.0 W/m2
02:50 -14.3 °C -14.9 °C 34144.4 hPa NE 5.1 km/h 31.1 km/h 92 % 12.7 mm 0.0 W/m2
03:00 -14.4 °C -15.1 °C 34144.4 hPa NNE 2.6 km/h 25.9 km/h 92 % 12.7 mm 0.0 W/m2
03:05 -14.5 °C -15.1 °C 34144.4 hPa NNE 2.6 km/h 25.9 km/h 93 % 12.7 mm 5.0 W/m2
03:10 -14.5 °C -15.1 °C 34154.6 hPa NNE 5.1 km/h 23.3 km/h 93 % 7.62 mm 5.0 W/m2
03:20 -14.6 °C -15.1 °C 34164.7 hPa Calm   15.6 km/h 93 % 12.7 mm 5.0 W/m2
03:30 -14.6 °C -15.2 °C 34164.7 hPa NE 18.2 km/h 36.2 km/h 93 % 12.7 mm 5.0 W/m2
03:40 -14.7 °C -15.4 °C 34164.7 hPa NNE 15.6 km/h 31.1 km/h 92 % 12.7 mm 7.0 W/m2
03:50 -14.8 °C -15.3 °C 34164.7 hPa NE 2.6 km/h 25.9 km/h 93 % 12.7 mm 16.0 W/m2
04:00 -14.9 °C -15.5 °C 34178.3 hPa NE 7.7 km/h 33.6 km/h 92 % 12.7 mm 12.0 W/m2
04:05 -14.9 °C -15.5 °C 34178.3 hPa NE 20.8 km/h 25.9 km/h 93 % 12.7 mm 23.0 W/m2
04:10 -14.9 °C -15.5 °C 34178.3 hPa NE 2.6 km/h 20.8 km/h 93 % 20.32 mm 21.0 W/m2
04:20 -15 °C -15.6 °C 34178.3 hPa NE 7.7 km/h 23.3 km/h 93 % 12.7 mm 26.0 W/m2
04:30 -15.1 °C -15.7 °C 34178.3 hPa NE 7.7 km/h 31.1 km/h 93 % 12.7 mm 28.0 W/m2
04:40 -15.1 °C -15.7 °C 34188.4 hPa NE 5.1 km/h 23.3 km/h 93 % 12.7 mm 26.0 W/m2
04:50 -15.2 °C -15.7 °C 34188.4 hPa Calm   20.8 km/h 93 % 12.7 mm 32.0 W/m2
05:00 -15.2 °C -15.8 °C 34198.6 hPa NNE 2.6 km/h 20.8 km/h 93 % 12.7 mm 21.0 W/m2
05:05 -15.2 °C -15.8 °C 34198.6 hPa NNE 7.7 km/h 20.8 km/h 93 % 12.7 mm 23.0 W/m2
05:10 -15.2 °C -15.8 °C 34198.6 hPa NNE 2.6 km/h 18.2 km/h 93 % 12.7 mm 21.0 W/m2
05:20 -15.3 °C -15.9 °C 34212.1 hPa NE 5.1 km/h 23.3 km/h 93 % 12.7 mm 23.0 W/m2
05:30 -15.4 °C -15.9 °C 34212.1 hPa Calm   12.9 km/h 94 % 25.4 mm 21.0 W/m2
05:40 -15.4 °C -15.9 °C 34212.1 hPa NNE 2.6 km/h 23.3 km/h 94 % 33.02 mm 35.0 W/m2
05:50 -15.4 °C -15.9 °C 34212.1 hPa NNE 2.6 km/h 23.3 km/h 94 % 33.02 mm 35.0 W/m2
06:00 -15.5 °C -16 °C 34212.1 hPa NE 7.7 km/h 44.1 km/h 94 % 38.1 mm 51.0 W/m2
06:05 -15.6 °C -16.1 °C 34222.3 hPa NNE 15.6 km/h 44.1 km/h 94 % 38.1 mm 39.0 W/m2
06:10 -15.7 °C -16.3 °C 34222.3 hPa NNE 12.9 km/h 36.2 km/h 93 % 33.02 mm 58.0 W/m2
06:20 -15.9 °C -16.4 °C 34212.1 hPa NNE 12.9 km/h 44.1 km/h 93 % 33.02 mm 98.0 W/m2
06:30 -15.9 °C -16.5 °C 34212.1 hPa NNE 15.6 km/h 33.6 km/h 93 % 20.32 mm 81.0 W/m2
06:40 -15.9 °C -16.4 °C 34212.1 hPa NNE 15.6 km/h 33.6 km/h 93 % 12.7 mm 113.0 W/m2
06:50 -15.8 °C -16.4 °C 34212.1 hPa NE 2.6 km/h 31.1 km/h 93 % 12.7 mm 123.0 W/m2
07:00 -15.8 °C -16.4 °C 34212.1 hPa NNE 7.7 km/h 25.9 km/h 92 % 7.62 mm 111.0 W/m2
07:05 -15.8 °C -16.5 °C 34212.1 hPa NE 12.9 km/h 33.6 km/h 92 % 7.62 mm 98.0 W/m2
07:10 -15.8 °C -16.5 °C 34212.1 hPa NE 7.7 km/h 20.8 km/h 92 % 7.62 mm 65.0 W/m2
07:20 -15.9 °C -16.5 °C 34222.3 hPa NNE 2.6 km/h 18.2 km/h 92 % 7.62 mm 69.0 W/m2
07:30 -15.9 °C -16.5 °C 34235.8 hPa NNE 5.1 km/h 18.2 km/h 92 % 7.62 mm 40.0 W/m2
07:40 -15.9 °C -16.6 °C 34235.8 hPa NNE 7.7 km/h 23.3 km/h 92 % 0 mm 58.0 W/m2
07:50 -16 °C -16.7 °C 34235.8 hPa NNE 5.1 km/h 20.8 km/h 92 % 7.62 mm 84.0 W/m2
08:00 -16.2 °C -16.8 °C 34235.8 hPa NNE 7.7 km/h 25.9 km/h 92 % 12.7 mm 98.0 W/m2
08:05 -16.2 °C -16.8 °C 34235.8 hPa Calm   23.3 km/h 92 % 12.7 mm 113.0 W/m2
08:10 -16.2 °C -16.7 °C 34235.8 hPa NE 2.6 km/h 18.2 km/h 93 % 12.7 mm 113.0 W/m2
08:20 -16.2 °C -16.7 °C 34235.8 hPa NE 5.1 km/h 18.2 km/h 93 % 20.32 mm 186.0 W/m2
08:30 -16.2 °C -16.8 °C 34235.8 hPa NE 12.9 km/h 23.3 km/h 93 % 25.4 mm 200.0 W/m2
08:40 -16.2 °C -16.7 °C 34246 hPa NNE 7.7 km/h 23.3 km/h 93 % 33.02 mm 169.0 W/m2
08:50 -16.2 °C -16.7 °C 34235.8 hPa NNE 5.1 km/h 20.8 km/h 93 % 25.4 mm 171.0 W/m2
09:00 -16.2 °C -16.8 °C 34246 hPa NE 7.7 km/h 20.8 km/h 93 % 25.4 mm 146.0 W/m2
09:05 -16.2 °C -16.8 °C 34246 hPa NNE 2.6 km/h 20.8 km/h 93 % 33.02 mm 118.0 W/m2
09:10 -16.2 °C -16.8 °C 34246 hPa North 2.6 km/h 25.9 km/h 93 % 25.4 mm 102.0 W/m2
09:20 -16.3 °C -16.8 °C 34256.2 hPa North 7.7 km/h 31.1 km/h 93 % 20.32 mm 86.0 W/m2
09:30 -16.4 °C -17 °C 34256.2 hPa North 7.7 km/h 25.9 km/h 93 % 25.4 mm 86.0 W/m2
09:40 -16.6 °C -17.1 °C 34256.2 hPa NNE 7.7 km/h 20.8 km/h 93 % 20.32 mm 74.0 W/m2
09:46 -16.6 °C -17.1 °C 34256.2 hPa NNE 2.6 km/h 15.6 km/h 93 % 20.32 mm 69.0 W/m2
09:55 -16.6 °C -17.2 °C 34256.2 hPa Calm   18.2 km/h 93 % 20.32 mm 74.0 W/m2
10:00 -16.6 °C -17.1 °C 34256.2 hPa Calm   2.6 km/h 94 % 20.32 mm 81.0 W/m2
10:05 -16.6 °C -17.1 °C 34256.2 hPa Calm   12.9 km/h 94 % 20.32 mm 91.0 W/m2
10:10 -16.6 °C -17.1 °C 34256.2 hPa Calm   7.7 km/h 94 % 20.32 mm 95.0 W/m2
10:20 -16.6 °C -17.1 °C 34246 hPa Calm   18.2 km/h 94 % 25.4 mm 123.0 W/m2
10:30 -16.6 °C -17.1 °C 34235.8 hPa ESE 2.6 km/h 18.2 km/h 94 % 20.32 mm 153.0 W/m2
10:40 -16.6 °C -17.1 °C 34246 hPa Calm   15.6 km/h 94 % 20.32 mm 148.0 W/m2
10:50 -16.6 °C -17.1 °C 34246 hPa Calm   10.3 km/h 94 % 12.7 mm 105.0 W/m2
11:00 -16.5 °C -17 °C 34246 hPa Calm   7.7 km/h 94 % 12.7 mm 128.0 W/m2
11:10 -16.4 °C -16.9 °C 34246 hPa Calm   15.6 km/h 94 % 12.7 mm 98.0 W/m2
11:20 -16.5 °C -17 °C 34256.2 hPa South 2.6 km/h 15.6 km/h 94 % 7.62 mm 114.0 W/m2
11:30 -16.4 °C -16.9 °C 34256.2 hPa Calm   10.3 km/h 94 % 0 mm 95.0 W/m2
11:40 -16.4 °C -16.9 °C 34256.2 hPa SSE 2.6 km/h 15.6 km/h 94 % 0 mm 90.0 W/m2
11:50 -16.4 °C -16.8 °C 34256.2 hPa Calm   5.1 km/h 95 % 0 mm 121.0 W/m2
12:00 -16.3 °C -16.8 °C 34256.2 hPa Calm     94 % 0 mm 186.0 W/m2
12:05 -16.3 °C -16.8 °C 34246 hPa Calm   7.7 km/h 94 % 0 mm 216.0 W/m2
12:10 -16.3 °C -16.8 °C 34256.2 hPa Calm   7.7 km/h 94 % 0 mm 163.0 W/m2
12:20 -16.1 °C -16.6 °C 34256.2 hPa SSW 2.6 km/h 15.6 km/h 94 % 0 mm 209.0 W/m2
12:30 -16 °C -16.5 °C 34256.2 hPa SW 2.6 km/h 18.2 km/h 94 % 0 mm 197.0 W/m2
12:40 -15.9 °C -16.4 °C 34256.2 hPa SW 2.6 km/h 23.3 km/h 94 % 0 mm 323.0 W/m2
12:50 -15.8 °C -16.3 °C 34256.2 hPa SW 5.1 km/h 20.8 km/h 94 % 0 mm 555.0 W/m2
13:00 -15.5 °C -16 °C 34256.2 hPa SSW 7.7 km/h 23.3 km/h 94 % 0 mm 390.0 W/m2
13:05 -15.4 °C -15.9 °C 34256.2 hPa South 12.9 km/h 25.9 km/h 94 % 0 mm 308.0 W/m2
13:10 -15.3 °C -15.8 °C 34256.2 hPa South 15.6 km/h 25.9 km/h 94 % 0 mm 434.0 W/m2
13:20 -15.3 °C -16 °C 34256.2 hPa SW 15.6 km/h 23.3 km/h 92 % 0 mm 418.0 W/m2
13:30 -15.4 °C -16.1 °C 34256.2 hPa SW 15.6 km/h 25.9 km/h 92 % 0 mm 288.0 W/m2
13:40 -15.4 °C -16.1 °C 34256.2 hPa SSW 12.9 km/h 23.3 km/h 92 % 0 mm 225.0 W/m2
13:50 -15.2 °C -15.8 °C 34256.2 hPa SSW 15.6 km/h 36.2 km/h 93 % 0 mm 343.0 W/m2
14:00 -15.1 °C -15.7 °C 34256.2 hPa South 20.8 km/h 31.1 km/h 92 % 0 mm 459.0 W/m2
14:10 -15.1 °C -15.9 °C 34256.2 hPa South 15.6 km/h 31.1 km/h 90 % 0 mm 294.0 W/m2
14:20 -15.1 °C -15.9 °C 34256.2 hPa SSW 2.6 km/h 25.9 km/h 91 % 0 mm 146.0 W/m2
14:30 -15.2 °C -15.9 °C 34256.2 hPa SSW 18.2 km/h 25.9 km/h 91 % 0 mm 223.0 W/m2
14:40 -15.2 °C -15.9 °C 34256.2 hPa South 15.6 km/h 25.9 km/h 91 % 0 mm 301.0 W/m2
14:50 -15.1 °C -15.9 °C 34256.2 hPa SSW 2.6 km/h 20.8 km/h 91 % 7.62 mm 118.0 W/m2
15:00 -15.1 °C -15.8 °C 34269.7 hPa SSW 7.7 km/h 25.9 km/h 91 % 7.62 mm 105.0 W/m2
15:05 -15.1 °C -15.9 °C 34269.7 hPa SSW 2.6 km/h 20.8 km/h 90 % 7.62 mm 146.0 W/m2
15:10 -15.2 °C -16 °C 34269.7 hPa South 18.2 km/h 31.1 km/h 90 % 7.62 mm 207.0 W/m2
15:20 -15.2 °C -15.9 °C 34269.7 hPa South 15.6 km/h 25.9 km/h 91 % 7.62 mm 179.0 W/m2
15:30 -15.2 °C -16 °C 34269.7 hPa SSW 12.9 km/h 25.9 km/h 90 % 7.62 mm 158.0 W/m2
15:40 -15.3 °C -16.2 °C 34279.9 hPa SSW 5.1 km/h 25.9 km/h 90 % 7.62 mm 169.0 W/m2
15:50 -15.4 °C -16.2 °C 34279.9 hPa SSW 12.9 km/h 25.9 km/h 90 % 0 mm 56.0 W/m2
16:00 -15.6 °C -16.4 °C 34279.9 hPa SSW 12.9 km/h 23.3 km/h 90 % 0 mm 93.0 W/m2
16:05 -15.7 °C -16.5 °C 34279.9 hPa SW 12.9 km/h 23.3 km/h 90 % 0 mm 111.0 W/m2
16:10 -15.7 °C -16.6 °C 34279.9 hPa SW 12.9 km/h 23.3 km/h 90 % 0 mm 56.0 W/m2
16:20 -15.8 °C -16.6 °C 34293.4 hPa SSW 2.6 km/h 20.8 km/h 90 % 0 mm 65.0 W/m2
16:30 -15.8 °C -16.6 °C 34293.4 hPa SW 15.6 km/h 23.3 km/h 91 % 0 mm 42.0 W/m2
16:40 -15.8 °C -16.6 °C 34293.4 hPa SSW 2.6 km/h 18.2 km/h 91 % 0 mm 79.0 W/m2
16:50 -15.8 °C -16.6 °C 34303.6 hPa SSW 2.6 km/h 7.7 km/h 91 % 0 mm 58.0 W/m2
17:00 -15.7 °C -16.5 °C 34303.6 hPa Calm   18.2 km/h 91 % 0 mm 40.0 W/m2
17:05 -15.7 °C -16.3 °C 34303.6 hPa SSW 7.7 km/h 18.2 km/h 92 % 0 mm 28.0 W/m2
17:10 -15.7 °C -16.3 °C 34303.6 hPa South 2.6 km/h 18.2 km/h 92 % 0 mm 28.0 W/m2
17:15 -15.7 °C -16.4 °C 34303.6 hPa Calm   15.6 km/h 91 % 0 mm 26.0 W/m2
17:20 -15.7 °C -16.5 °C 34303.6 hPa SSW 5.1 km/h 15.6 km/h 91 % 0 mm 16.0 W/m2
17:30 -15.8 °C -16.6 °C 34313.7 hPa Calm     90 % 0 mm 21.0 W/m2
17:40 -15.9 °C -16.7 °C 34313.7 hPa Calm     90 % 0 mm 12.0 W/m2
17:50 -15.9 °C -16.8 °C 34313.7 hPa Calm     90 % 0 mm 11.0 W/m2
18:00 -16.1 °C -16.9 °C 34313.7 hPa Calm   7.7 km/h 90 % 0 mm 5.0 W/m2
18:10 -16.2 °C -16.9 °C 34313.7 hPa Calm     91 % 0 mm 0.0 W/m2
18:20 -16.3 °C -17.1 °C 34327.3 hPa Calm     91 % 0 mm 0.0 W/m2
Station d'observation IQUEBECS58
Gracieuseté de Weather Underground - 3 mb

Script original développé par  Jim McMurry - jmcmurry@mwt.net Adapté pour le modèle par  Wim van der Kuil - Leuven-Template.eu

Les données sont envoyées via ces sites météo:

WeatherCloud

Weather Underground

Canadian Atlantic Weather Network

AWEKAS

Citizen Weather Observer Program (CWOP)

HAMweather, WeatherForYou, PWS Weather